Terminal Aerodrome Forecast
Issued by NWS Pittsburgh, PA

Current Version | Previous Version | Graphics & Text | Print | Product List | Glossary On
Versions: 1 2 3 4 5 6 7 8 9 10 11 12 13 14 15 16 17 18 19 20 21 22 23 24 25 26
000
FTUS41 KPBZ 260856 AAA
TAFPIT
TAF AMD
KPIT 260856Z 2609/2712 VRB03KT P6SM BKN040
      TEMPO 2611/2614 BKN025
     FM261500 28007KT P6SM BKN040
     FM270400 VRB03KT P6SM SCT040
      TEMPO 2709/2712 3SM BR=

USA.gov is the U.S. government's official web portal to all federal, state and local government web resources and services.